PGT40YP LTCG-LTFJ
Flight info
| Callsign | PGT40YP |
|---|---|
| Flight time | 1h 27m |
| Altitude | 38000 |
| Route | TEMEL UW71 CRM DCT DEREL UT79 NAMAN |
| Aircraft | A320/M-SDE3FGHIRWY/LB1 |
Departure
| Time | 2026-04-30 19:53 |
|---|---|
| Airport | Trabzon International Airport (LTCG) |
Arrival
| Time | 2026-04-30 21:20 |
|---|---|
| Airport | Istanbul Sabiha Gökçen International Airport (LTFJ) |
| Time | Latitude | Longitude | Altitude | Speed | Heading |
|---|---|---|---|---|---|
| 2026-04-30 19:26 | 40.99577 | 39.78032 | 112 ft | 0 kts | 202° |
| 2026-04-30 19:46 | 40.99586 | 39.78038 | 116 ft | 3 kts | 202° |
| 2026-04-30 19:46 | 40.99606 | 39.78048 | 113 ft | 1 kts | 202° |
| 2026-04-30 19:46 | 40.99624 | 39.78061 | 112 ft | 3 kts | 230° |
| 2026-04-30 19:47 | 40.99633 | 39.78085 | 114 ft | 3 kts | 275° |
| 2026-04-30 19:47 | 40.99631 | 39.78101 | 111 ft | 1 kts | 292° |
| 2026-04-30 19:47 | 40.99631 | 39.78102 | 111 ft | 0 kts | 292° |
| 2026-04-30 19:49 | 40.99632 | 39.78099 | 111 ft | 3 kts | 292° |
| 2026-04-30 19:50 | 40.99660 | 39.78007 | 115 ft | 14 kts | 292° |
| 2026-04-30 19:50 | 40.99697 | 39.77888 | 114 ft | 14 kts | 292° |
| 2026-04-30 19:50 | 40.99734 | 39.77768 | 110 ft | 16 kts | 292° |
| 2026-04-30 19:50 | 40.99777 | 39.77630 | 108 ft | 16 kts | 292° |
| 2026-04-30 19:51 | 40.99804 | 39.77544 | 108 ft | 8 kts | 292° |
| 2026-04-30 19:51 | 40.99841 | 39.77497 | 109 ft | 6 kts | 339° |
| 2026-04-30 19:51 | 40.99848 | 39.77494 | 110 ft | 0 kts | 343° |
| 2026-04-30 19:52 | 40.99893 | 39.77498 | 109 ft | 10 kts | 20° |
| 2026-04-30 19:52 | 40.99949 | 39.77533 | 109 ft | 8 kts | 48° |
| 2026-04-30 19:52 | 40.99911 | 39.77670 | 108 ft | 42 kts | 113° |
| 2026-04-30 19:52 | 40.99706 | 39.78328 | 109 ft | 109 kts | 112° |
| 2026-04-30 19:53 | 40.99351 | 39.79479 | 110 ft | 158 kts | 112° |
| 2026-04-30 19:53 | 40.98934 | 39.80819 | 732 ft | 158 kts | 110° |
| 2026-04-30 19:53 | 40.98744 | 39.82249 | 1472 ft | 158 kts | 96° |
| 2026-04-30 19:53 | 40.98631 | 39.83720 | 2086 ft | 167 kts | 96° |
| 2026-04-30 19:54 | 40.98500 | 39.85353 | 2418 ft | 189 kts | 97° |
| 2026-04-30 19:54 | 40.98346 | 39.87192 | 2750 ft | 213 kts | 97° |
| 2026-04-30 19:54 | 40.98242 | 39.89190 | 3475 ft | 221 kts | 84° |
| 2026-04-30 19:54 | 40.98828 | 39.91065 | 4263 ft | 227 kts | 50° |
| 2026-04-30 19:55 | 41.00092 | 39.92336 | 5100 ft | 233 kts | 23° |
| 2026-04-30 19:55 | 41.01696 | 39.92644 | 5885 ft | 238 kts | 351° |
| 2026-04-30 19:55 | 41.03222 | 39.91807 | 6654 ft | 241 kts | 319° |
| 2026-04-30 19:55 | 41.04246 | 39.90037 | 7213 ft | 254 kts | 289° |
| 2026-04-30 19:56 | 41.04461 | 39.87691 | 7654 ft | 271 kts | 265° |
| 2026-04-30 19:56 | 41.04350 | 39.85162 | 8463 ft | 276 kts | 265° |
| 2026-04-30 19:56 | 41.04250 | 39.82619 | 9430 ft | 276 kts | 265° |
| 2026-04-30 19:56 | 41.04159 | 39.80072 | 10329 ft | 280 kts | 265° |
| 2026-04-30 19:57 | 41.04065 | 39.77387 | 10625 ft | 304 kts | 265° |
| 2026-04-30 19:57 | 41.03964 | 39.74510 | 11112 ft | 318 kts | 265° |
| 2026-04-30 19:57 | 41.03860 | 39.71562 | 11893 ft | 322 kts | 266° |
| 2026-04-30 19:57 | 41.03762 | 39.68582 | 12737 ft | 324 kts | 265° |
| 2026-04-30 19:58 | 41.03658 | 39.65604 | 13577 ft | 326 kts | 265° |
| 2026-04-30 19:58 | 41.03552 | 39.62590 | 14322 ft | 329 kts | 265° |
| 2026-04-30 19:58 | 41.03443 | 39.59584 | 15011 ft | 332 kts | 265° |
| 2026-04-30 19:58 | 41.03336 | 39.56515 | 15708 ft | 335 kts | 265° |
| 2026-04-30 19:59 | 41.03283 | 39.53413 | 16392 ft | 339 kts | 271° |
| 2026-04-30 19:59 | 41.03459 | 39.50279 | 17070 ft | 343 kts | 272° |
| 2026-04-30 19:59 | 41.03862 | 39.43922 | 18438 ft | 349 kts | 273° |
| 2026-04-30 20:00 | 41.04068 | 39.40710 | 18997 ft | 353 kts | 273° |
| 2026-04-30 20:00 | 41.04270 | 39.37458 | 19581 ft | 355 kts | 273° |
| 2026-04-30 20:00 | 41.04472 | 39.34189 | 20159 ft | 357 kts | 273° |
| 2026-04-30 20:00 | 41.04679 | 39.30895 | 20745 ft | 360 kts | 273° |
| 2026-04-30 20:01 | 41.05092 | 39.24230 | 21851 ft | 366 kts | 273° |
| 2026-04-30 20:01 | 41.05288 | 39.20860 | 22406 ft | 368 kts | 273° |
| 2026-04-30 20:01 | 41.05493 | 39.17466 | 22946 ft | 371 kts | 273° |
| 2026-04-30 20:02 | 41.05981 | 39.10653 | 23940 ft | 377 kts | 275° |
| 2026-04-30 20:02 | 41.06320 | 39.07182 | 24398 ft | 379 kts | 275° |
| 2026-04-30 20:03 | 41.06979 | 39.00201 | 25305 ft | 383 kts | 275° |
| 2026-04-30 20:03 | 41.07300 | 38.96680 | 25746 ft | 385 kts | 275° |
| 2026-04-30 20:03 | 41.07620 | 38.93143 | 26179 ft | 387 kts | 275° |
| 2026-04-30 20:03 | 41.07947 | 38.89593 | 26607 ft | 389 kts | 275° |
| 2026-04-30 20:04 | 41.08270 | 38.86021 | 27052 ft | 391 kts | 275° |
| 2026-04-30 20:04 | 41.08595 | 38.82433 | 27471 ft | 393 kts | 275° |
| 2026-04-30 20:04 | 41.08917 | 38.78872 | 27871 ft | 395 kts | 275° |
| 2026-04-30 20:05 | 41.09569 | 38.71589 | 28687 ft | 400 kts | 275° |
| 2026-04-30 20:05 | 41.09890 | 38.67913 | 29089 ft | 402 kts | 275° |
| 2026-04-30 20:05 | 41.10531 | 38.60511 | 29831 ft | 406 kts | 275° |
| 2026-04-30 20:06 | 41.10847 | 38.56776 | 30182 ft | 408 kts | 275° |
| 2026-04-30 20:06 | 41.11164 | 38.53022 | 30482 ft | 410 kts | 275° |
| 2026-04-30 20:06 | 41.11481 | 38.49258 | 30799 ft | 412 kts | 275° |
| 2026-04-30 20:06 | 41.11694 | 38.46759 | 31003 ft | 413 kts | 275° |
| 2026-04-30 20:07 | 41.12014 | 38.42964 | 31315 ft | 414 kts | 275° |
| 2026-04-30 20:07 | 41.12327 | 38.39173 | 31727 ft | 413 kts | 275° |
| 2026-04-30 20:07 | 41.12940 | 38.31639 | 32584 ft | 409 kts | 275° |
| 2026-04-30 20:08 | 41.13252 | 38.27894 | 33013 ft | 408 kts | 274° |
| 2026-04-30 20:08 | 41.13554 | 38.24159 | 33438 ft | 406 kts | 274° |
| 2026-04-30 20:08 | 41.13860 | 38.20447 | 33858 ft | 405 kts | 274° |
| 2026-04-30 20:08 | 41.14162 | 38.16742 | 34247 ft | 403 kts | 274° |
| 2026-04-30 20:09 | 41.14462 | 38.13045 | 34560 ft | 403 kts | 274° |
| 2026-04-30 20:09 | 41.14759 | 38.09349 | 34903 ft | 402 kts | 274° |
| 2026-04-30 20:09 | 41.15352 | 38.02018 | 35544 ft | 401 kts | 274° |
| 2026-04-30 20:10 | 41.15949 | 37.94662 | 36142 ft | 401 kts | 274° |
| 2026-04-30 20:10 | 41.16242 | 37.90985 | 36425 ft | 400 kts | 274° |
| 2026-04-30 20:10 | 41.16534 | 37.87309 | 36700 ft | 400 kts | 274° |
| 2026-04-30 20:11 | 41.17161 | 37.79967 | 37226 ft | 400 kts | 274° |
| 2026-04-30 20:11 | 41.17473 | 37.76299 | 37474 ft | 400 kts | 275° |
| 2026-04-30 20:11 | 41.17787 | 37.72632 | 37750 ft | 399 kts | 275° |
| 2026-04-30 20:12 | 41.18405 | 37.65305 | 38092 ft | 399 kts | 274° |
| 2026-04-30 20:12 | 41.18707 | 37.61641 | 38093 ft | 399 kts | 274° |
| 2026-04-30 20:13 | 41.19076 | 37.54306 | 38090 ft | 399 kts | 273° |
| 2026-04-30 20:13 | 41.19631 | 37.47022 | 38080 ft | 399 kts | 274° |
| 2026-04-30 20:14 | 41.20179 | 37.39687 | 38089 ft | 399 kts | 274° |
| 2026-04-30 20:14 | 41.20723 | 37.32351 | 38096 ft | 399 kts | 274° |
| 2026-04-30 20:15 | 41.21262 | 37.25008 | 38095 ft | 399 kts | 274° |
| 2026-04-30 20:15 | 41.21814 | 37.17713 | 38096 ft | 399 kts | 274° |
| 2026-04-30 20:16 | 41.22394 | 37.10374 | 38096 ft | 399 kts | 274° |
| 2026-04-30 20:16 | 41.22959 | 37.03012 | 38094 ft | 400 kts | 274° |
| 2026-04-30 20:17 | 41.23519 | 36.95654 | 38117 ft | 400 kts | 274° |
| 2026-04-30 20:17 | 41.24077 | 36.88294 | 38113 ft | 400 kts | 274° |
| 2026-04-30 20:18 | 41.24626 | 36.80985 | 38112 ft | 400 kts | 274° |
| 2026-04-30 20:18 | 41.25177 | 36.73631 | 38105 ft | 400 kts | 274° |
| 2026-04-30 20:19 | 41.25726 | 36.66263 | 38106 ft | 400 kts | 274° |
| 2026-04-30 20:19 | 41.26263 | 36.58897 | 38129 ft | 400 kts | 274° |
| 2026-04-30 20:20 | 41.26220 | 36.51590 | 38107 ft | 398 kts | 261° |
| 2026-04-30 20:20 | 41.25425 | 36.44318 | 38106 ft | 397 kts | 261° |
| 2026-04-30 20:21 | 41.24626 | 36.37051 | 38099 ft | 397 kts | 261° |
| 2026-04-30 20:21 | 41.23840 | 36.29783 | 38100 ft | 397 kts | 261° |
| 2026-04-30 20:22 | 41.23045 | 36.22521 | 38077 ft | 397 kts | 261° |
| 2026-04-30 20:22 | 41.22246 | 36.15248 | 38074 ft | 397 kts | 261° |
| 2026-04-30 20:23 | 41.21436 | 36.07976 | 38072 ft | 398 kts | 261° |
| 2026-04-30 20:23 | 41.20634 | 36.00754 | 38063 ft | 398 kts | 261° |
| 2026-04-30 20:24 | 41.19821 | 35.93480 | 38069 ft | 398 kts | 261° |
| 2026-04-30 20:24 | 41.18998 | 35.86206 | 38062 ft | 398 kts | 261° |
| 2026-04-30 20:25 | 41.17754 | 35.75335 | 38042 ft | 399 kts | 261° |
| 2026-04-30 20:26 | 41.16506 | 35.64402 | 38048 ft | 399 kts | 261° |
| 2026-04-30 20:26 | 41.15254 | 35.53481 | 38047 ft | 398 kts | 261° |
| 2026-04-30 20:27 | 41.13554 | 35.39001 | 38038 ft | 398 kts | 261° |
| 2026-04-30 20:28 | 41.11842 | 35.24471 | 38011 ft | 399 kts | 261° |
| 2026-04-30 20:30 | 41.09670 | 35.06276 | 38019 ft | 400 kts | 261° |
| 2026-04-30 20:31 | 41.07017 | 34.84478 | 38018 ft | 400 kts | 261° |
| 2026-04-30 20:32 | 41.04788 | 34.66263 | 38016 ft | 400 kts | 260° |
| 2026-04-30 20:33 | 41.03431 | 34.55406 | 38007 ft | 399 kts | 260° |
| 2026-04-30 20:34 | 41.02067 | 34.44511 | 37994 ft | 400 kts | 260° |
| 2026-04-30 20:35 | 41.00696 | 34.33620 | 37986 ft | 400 kts | 260° |
| 2026-04-30 20:35 | 40.99308 | 34.22736 | 37999 ft | 400 kts | 260° |
| 2026-04-30 20:36 | 40.98377 | 34.15474 | 37998 ft | 400 kts | 260° |
| 2026-04-30 20:37 | 40.96965 | 34.04629 | 37978 ft | 401 kts | 260° |
| 2026-04-30 20:37 | 40.96026 | 33.97352 | 37985 ft | 402 kts | 259° |
| 2026-04-30 20:38 | 40.95069 | 33.90059 | 37988 ft | 402 kts | 260° |
| 2026-04-30 20:38 | 40.94114 | 33.82769 | 37991 ft | 402 kts | 259° |
| 2026-04-30 20:39 | 40.92681 | 33.71873 | 38000 ft | 403 kts | 259° |
| 2026-04-30 20:40 | 40.91232 | 33.60939 | 38011 ft | 402 kts | 260° |
| 2026-04-30 20:40 | 40.90247 | 33.53646 | 38011 ft | 403 kts | 260° |
| 2026-04-30 20:41 | 40.88771 | 33.42705 | 38020 ft | 403 kts | 260° |
| 2026-04-30 20:41 | 40.87787 | 33.35413 | 38022 ft | 403 kts | 260° |
| 2026-04-30 20:42 | 40.86794 | 33.28129 | 38029 ft | 403 kts | 259° |
| 2026-04-30 20:43 | 40.85293 | 33.17200 | 38049 ft | 402 kts | 260° |
| 2026-04-30 20:43 | 40.84301 | 33.09928 | 38047 ft | 401 kts | 260° |
| 2026-04-30 20:44 | 40.82786 | 32.99084 | 38040 ft | 400 kts | 260° |
| 2026-04-30 20:45 | 40.80775 | 32.84661 | 38042 ft | 399 kts | 260° |
| 2026-04-30 20:45 | 40.79772 | 32.77503 | 38025 ft | 399 kts | 260° |
| 2026-04-30 20:46 | 40.77718 | 32.63099 | 38038 ft | 399 kts | 260° |
| 2026-04-30 20:47 | 40.76174 | 32.52324 | 38032 ft | 398 kts | 260° |
| 2026-04-30 20:48 | 40.74613 | 32.41537 | 38034 ft | 398 kts | 260° |
| 2026-04-30 20:48 | 40.73586 | 32.34402 | 38015 ft | 399 kts | 259° |
| 2026-04-30 20:49 | 40.72542 | 32.27220 | 38020 ft | 399 kts | 260° |
| 2026-04-30 20:50 | 40.72229 | 32.16351 | 38026 ft | 400 kts | 282° |
| 2026-04-30 20:50 | 40.73891 | 32.09328 | 38024 ft | 401 kts | 286° |
| 2026-04-30 20:51 | 40.75638 | 32.02335 | 38033 ft | 401 kts | 286° |
| 2026-04-30 20:51 | 40.78093 | 31.91791 | 38056 ft | 399 kts | 275° |
| 2026-04-30 20:52 | 40.78130 | 31.84544 | 38058 ft | 398 kts | 269° |
| 2026-04-30 20:53 | 40.78059 | 31.73594 | 38058 ft | 397 kts | 269° |
| 2026-04-30 20:53 | 40.78021 | 31.66305 | 38043 ft | 397 kts | 269° |
| 2026-04-30 20:54 | 40.77929 | 31.55344 | 38043 ft | 399 kts | 269° |
| 2026-04-30 20:55 | 40.77845 | 31.44372 | 38068 ft | 398 kts | 269° |
| 2026-04-30 20:55 | 40.77775 | 31.37107 | 38069 ft | 398 kts | 269° |
| 2026-04-30 20:56 | 40.77669 | 31.26135 | 38076 ft | 398 kts | 269° |
| 2026-04-30 20:57 | 40.77559 | 31.15180 | 38108 ft | 398 kts | 269° |
| 2026-04-30 20:57 | 40.77474 | 31.07926 | 38103 ft | 397 kts | 269° |
| 2026-04-30 20:58 | 40.77352 | 30.96987 | 38078 ft | 398 kts | 269° |
| 2026-04-30 20:58 | 40.77262 | 30.90919 | 38081 ft | 398 kts | 269° |
| 2026-04-30 20:59 | 40.77093 | 30.78992 | 38093 ft | 398 kts | 269° |
| 2026-04-30 21:00 | 40.77000 | 30.72239 | 37881 ft | 405 kts | 269° |
| 2026-04-30 21:00 | 40.76910 | 30.66032 | 37433 ft | 408 kts | 268° |
| 2026-04-30 21:01 | 40.76793 | 30.58544 | 36508 ft | 410 kts | 268° |
| 2026-04-30 21:01 | 40.76730 | 30.54755 | 35588 ft | 415 kts | 268° |
| 2026-04-30 21:01 | 40.76610 | 30.47102 | 33935 ft | 419 kts | 267° |
| 2026-04-30 21:02 | 40.76544 | 30.43258 | 32867 ft | 418 kts | 268° |
| 2026-04-30 21:02 | 40.76479 | 30.39460 | 31834 ft | 421 kts | 268° |
| 2026-04-30 21:02 | 40.76405 | 30.35590 | 30868 ft | 424 kts | 267° |
| 2026-04-30 21:02 | 40.76331 | 30.31705 | 30065 ft | 422 kts | 268° |
| 2026-04-30 21:03 | 40.76265 | 30.27855 | 29346 ft | 417 kts | 268° |
| 2026-04-30 21:03 | 40.76193 | 30.24053 | 28653 ft | 411 kts | 267° |
| 2026-04-30 21:03 | 40.76117 | 30.20297 | 27958 ft | 406 kts | 267° |
| 2026-04-30 21:03 | 40.76043 | 30.16633 | 27292 ft | 402 kts | 267° |
| 2026-04-30 21:04 | 40.75970 | 30.12964 | 26608 ft | 398 kts | 267° |
| 2026-04-30 21:04 | 40.75902 | 30.09326 | 25935 ft | 395 kts | 267° |
| 2026-04-30 21:04 | 40.75752 | 30.02125 | 24575 ft | 390 kts | 267° |
| 2026-04-30 21:05 | 40.75680 | 29.98566 | 23901 ft | 387 kts | 267° |
| 2026-04-30 21:05 | 40.75606 | 29.95026 | 23183 ft | 384 kts | 267° |
| 2026-04-30 21:05 | 40.75530 | 29.91523 | 22552 ft | 380 kts | 267° |
| 2026-04-30 21:05 | 40.75453 | 29.88068 | 21960 ft | 375 kts | 266° |
| 2026-04-30 21:06 | 40.75376 | 29.84645 | 21353 ft | 370 kts | 266° |
| 2026-04-30 21:06 | 40.75299 | 29.81268 | 20797 ft | 366 kts | 266° |
| 2026-04-30 21:06 | 40.75225 | 29.77926 | 20234 ft | 363 kts | 266° |
| 2026-04-30 21:06 | 40.74891 | 29.74661 | 19923 ft | 358 kts | 257° |
| 2026-04-30 21:07 | 40.74387 | 29.71487 | 19682 ft | 357 kts | 257° |
| 2026-04-30 21:07 | 40.73881 | 29.68285 | 19438 ft | 356 kts | 257° |
| 2026-04-30 21:07 | 40.73378 | 29.65091 | 19199 ft | 355 kts | 257° |
| 2026-04-30 21:07 | 40.72881 | 29.61904 | 18962 ft | 354 kts | 257° |
| 2026-04-30 21:08 | 40.72378 | 29.58723 | 18721 ft | 353 kts | 257° |
| 2026-04-30 21:08 | 40.71875 | 29.55556 | 18487 ft | 352 kts | 257° |
| 2026-04-30 21:08 | 40.71376 | 29.52406 | 18243 ft | 350 kts | 257° |
| 2026-04-30 21:08 | 40.70879 | 29.49283 | 17975 ft | 348 kts | 257° |
| 2026-04-30 21:09 | 40.70387 | 29.46175 | 17588 ft | 344 kts | 257° |
| 2026-04-30 21:09 | 40.69899 | 29.43097 | 17025 ft | 342 kts | 256° |
| 2026-04-30 21:09 | 40.69409 | 29.40043 | 16472 ft | 340 kts | 256° |
| 2026-04-30 21:09 | 40.68920 | 29.37042 | 15912 ft | 338 kts | 256° |
| 2026-04-30 21:10 | 40.68431 | 29.34014 | 15361 ft | 337 kts | 256° |
| 2026-04-30 21:10 | 40.67947 | 29.30995 | 14836 ft | 336 kts | 256° |
| 2026-04-30 21:10 | 40.67466 | 29.27993 | 14320 ft | 334 kts | 256° |
| 2026-04-30 21:10 | 40.66984 | 29.25002 | 13821 ft | 333 kts | 256° |
| 2026-04-30 21:11 | 40.66505 | 29.22049 | 13073 ft | 326 kts | 256° |
| 2026-04-30 21:11 | 40.66036 | 29.19138 | 12064 ft | 323 kts | 256° |
| 2026-04-30 21:11 | 40.65571 | 29.16261 | 11278 ft | 315 kts | 256° |
| 2026-04-30 21:11 | 40.65139 | 29.13554 | 11125 ft | 289 kts | 256° |
| 2026-04-30 21:12 | 40.64751 | 29.11058 | 10933 ft | 269 kts | 259° |
| 2026-04-30 21:12 | 40.64843 | 29.08659 | 10732 ft | 258 kts | 280° |
| 2026-04-30 21:12 | 40.65564 | 29.06564 | 10565 ft | 248 kts | 295° |
| 2026-04-30 21:12 | 40.66480 | 29.04670 | 10162 ft | 243 kts | 296° |
| 2026-04-30 21:13 | 40.67389 | 29.02811 | 9671 ft | 241 kts | 296° |
| 2026-04-30 21:13 | 40.68291 | 29.00962 | 9165 ft | 239 kts | 298° |
| 2026-04-30 21:13 | 40.69509 | 28.99462 | 8790 ft | 243 kts | 327° |
| 2026-04-30 21:13 | 40.71114 | 28.98880 | 8575 ft | 241 kts | 353° |
| 2026-04-30 21:14 | 40.72751 | 28.99288 | 8302 ft | 239 kts | 16° |
| 2026-04-30 21:14 | 40.74251 | 29.00118 | 7968 ft | 230 kts | 23° |
| 2026-04-30 21:14 | 40.75625 | 29.01142 | 7458 ft | 229 kts | 30° |
| 2026-04-30 21:14 | 40.76912 | 29.02339 | 6847 ft | 225 kts | 36° |
| 2026-04-30 21:15 | 40.78091 | 29.03679 | 6179 ft | 222 kts | 43° |
| 2026-04-30 21:15 | 40.79145 | 29.05128 | 5545 ft | 216 kts | 47° |
| 2026-04-30 21:15 | 40.80082 | 29.06647 | 4922 ft | 208 kts | 52° |
| 2026-04-30 21:15 | 40.80948 | 29.08111 | 4326 ft | 197 kts | 52° |
| 2026-04-30 21:16 | 40.81769 | 29.09515 | 3910 ft | 186 kts | 53° |
| 2026-04-30 21:16 | 40.82434 | 29.10926 | 3792 ft | 179 kts | 60° |
| 2026-04-30 21:16 | 40.83002 | 29.12380 | 3594 ft | 177 kts | 62° |
| 2026-04-30 21:16 | 40.83535 | 29.13817 | 3336 ft | 175 kts | 62° |
| 2026-04-30 21:17 | 40.84067 | 29.15258 | 3066 ft | 174 kts | 62° |
| 2026-04-30 21:17 | 40.84595 | 29.16687 | 2793 ft | 171 kts | 62° |
| 2026-04-30 21:17 | 40.85114 | 29.18090 | 2519 ft | 170 kts | 61° |
| 2026-04-30 21:17 | 40.85630 | 29.19485 | 2247 ft | 164 kts | 60° |
| 2026-04-30 21:18 | 40.86110 | 29.20786 | 2000 ft | 149 kts | 60° |
| 2026-04-30 21:18 | 40.86538 | 29.21947 | 1763 ft | 135 kts | 60° |
| 2026-04-30 21:18 | 40.86942 | 29.23036 | 1544 ft | 130 kts | 60° |
| 2026-04-30 21:18 | 40.87327 | 29.24074 | 1351 ft | 127 kts | 60° |
| 2026-04-30 21:19 | 40.87715 | 29.25109 | 1128 ft | 128 kts | 60° |
| 2026-04-30 21:19 | 40.88121 | 29.26173 | 955 ft | 131 kts | 62° |
| 2026-04-30 21:19 | 40.88503 | 29.27262 | 756 ft | 132 kts | 62° |
| 2026-04-30 21:19 | 40.88902 | 29.28329 | 552 ft | 130 kts | 63° |
| 2026-04-30 21:20 | 40.89295 | 29.29395 | 350 ft | 129 kts | 61° |
| 2026-04-30 21:20 | 40.89635 | 29.30323 | 310 ft | 90 kts | 64° |
| 2026-04-30 21:20 | 40.89833 | 29.30858 | 310 ft | 41 kts | 63° |
| 2026-04-30 21:20 | 40.89935 | 29.31126 | 311 ft | 30 kts | 63° |
| 2026-04-30 21:21 | 40.90054 | 29.31277 | 311 ft | 18 kts | 36° |
| 2026-04-30 21:21 | 40.90162 | 29.31376 | 311 ft | 20 kts | 34° |
| 2026-04-30 21:21 | 40.90323 | 29.31493 | 311 ft | 11 kts | 338° |
| 2026-04-30 21:22 | 40.90380 | 29.31457 | 311 ft | 6 kts | 334° |
| 2026-04-30 21:22 | 40.90485 | 29.31533 | 310 ft | 13 kts | 65° |
| 2026-04-30 21:23 | 40.90524 | 29.31639 | 309 ft | 12 kts | 63° |
| 2026-04-30 21:23 | 40.90558 | 29.31732 | 311 ft | 7 kts | 64° |
| 2026-04-30 21:23 | 40.90588 | 29.31770 | 311 ft | 2 kts | 334° |
| 2026-04-30 21:24 | 40.90609 | 29.31755 | 311 ft | 5 kts | 335° |
| 2026-04-30 21:24 | 40.90635 | 29.31739 | 311 ft | 3 kts | 334° |
| 2026-04-30 21:24 | 40.90646 | 29.31731 | 311 ft | 0 kts | 334° |